Flight Track Log - Related Links

Times and Time Zones

All times are in EDT time to prevent confusion due to time zone crossing. See the EGF3793 flight status page for this flight to view local times or setup timezone preferences in your user account.

Time Position Orientation Groundspeed Altitude Reporting Facility
EDT Latitude Longitude Course Direction KTS MPH feet Rate Location/Type
Tue 11:42:25 PM 41.9500 -87.9167 253° West 170 196 1,600  Level Chicago TRACON
Tue 11:43:31 PM 41.9500 -88.0000 270° West 221 254 3,700 2,153 Climbing Chicago TRACON
Tue 11:44:00 PM 41.8793 -88.3268 242° Southwest  Level FlightAware Approximate
Tue 11:45:00 PM 41.8372 -88.4643 255° West  Level FlightAware Approximate
Tue 11:45:15 PM 41.9442 -88.1544 267° West 262 302 7,700  Level Chicago Center
Tue 11:46:00 PM 41.8059 -88.6079 254° West  Level FlightAware Approximate
Tue 11:46:16 PM 41.9364 -88.2558 264° West 274 315 10,300  Level Chicago Center
Tue 11:47:00 PM 41.7741 -88.7512 253° West  Level FlightAware Approximate
Tue 11:47:17 PM 41.9306 -88.3586 266° West 277 319 13,300  Level Chicago Center
Tue 11:48:18 PM 41.9033 -88.4542 249° West 279 321 15,100 1,525 Climbing Chicago Center
Tue 11:49:19 PM 41.8625 -88.5886 248° West 324 373 16,400 1,230 Climbing Chicago Center
Tue 11:50:20 PM 41.8294 -88.7164 251° West 360 414 17,600 1,426 Climbing Chicago Center
Tue 11:51:21 PM 41.7961 -88.8497 252° West 378 435 19,300 1,721 Climbing Chicago Center
Tue 11:52:22 PM 41.7608 -88.9844 251° West 387 445 21,100 1,770 Climbing Chicago Center
Tue 11:53:23 PM 41.7264 -89.1211 251° West 391 450 22,900 1,835 Climbing Chicago Center
Tue 11:54:23 PM 41.6931 -89.2539 251° West 384 442 24,800 1,785 Climbing Chicago Center
Tue 11:55:24 PM 41.6464 -89.3808 244° Southwest 387 445 26,500 1,574 Climbing Chicago Center
Tue 11:56:25 PM 41.5811 -89.4997 234° Southwest 399 459 28,000 1,574 Climbing Chicago Center
Tue 11:57:26 PM 41.5081 -89.6325 234° Southwest 399 459 29,700 1,377 Climbing Chicago Center
Tue 11:58:27 PM 41.4422 -89.7494 233° Southwest 397 457 30,800 1,033 Climbing Chicago Center
Tue 11:59:28 PM 41.3742 -89.8689 233° Southwest 405 466 31,800 984 Climbing Chicago Center
Wed 12:00:29 AM 41.3067 -89.9908 234° Southwest 411 473 32,800 992 Climbing Chicago Center
Wed 12:01:29 AM 41.2383 -90.1103 233° Southwest 409 471 33,800 992 Climbing Chicago Center
Wed 12:02:30 AM 41.1703 -90.2306 233° Southwest 410 472 34,800 984 Climbing Chicago Center
Wed 12:03:31 AM 41.1019 -90.3506 233° Southwest 412 474 35,800 590 Climbing Chicago Center
Wed 12:04:32 AM 41.0344 -90.4686 233° Southwest 408 470 36,000 98 Climbing Chicago Center
Wed 12:05:33 AM 40.9647 -90.5889 233° Southwest 411 473 36,000  Level Chicago Center
Wed 12:06:33 AM 40.8911 -90.7158 233° Southwest 430 495 36,000  Level Chicago Center
Wed 12:07:34 AM 40.8042 -90.8656 233° Southwest 431 496 36,000  Level Chicago Center
Wed 12:08:35 AM 40.7317 -90.9889 232° Southwest 429 494 36,000 248 Level Chicago Center
Wed 12:09:35 AM 40.6572 -91.1144 232° Southwest 434 499 36,500 645 Climbing Chicago Center
Wed 12:10:36 AM 40.5856 -91.2375 233° Southwest 426 490 37,300 738 Climbing Chicago Center
Wed 12:11:37 AM 40.5164 -91.3556 232° Southwest 420 483 38,000 331 Climbing Chicago Center
Wed 12:12:43 AM 40.4439 -91.4747 231° Southwest 419 482 38,000  Level Kansas City Center
Wed 12:13:44 AM 40.3569 -91.6214 232° Southwest 425 489 38,000  Level Kansas City Center
Wed 12:14:47 AM 40.2833 -91.7444 232° Southwest 429 494 38,000  Level Kansas City Center
Wed 12:15:48 AM 40.2094 -91.8661 232° Southwest 429 494 38,000  Level Kansas City Center
Wed 12:16:48 AM 40.1367 -91.9883 232° Southwest 428 493 38,000  Level Kansas City Center
Wed 12:17:48 AM 40.0631 -92.1092 232° Southwest 426 490 38,000  Level Kansas City Center
Wed 12:18:49 AM 39.9892 -92.2322 232° Southwest 428 493 38,000  Level Kansas City Center
Wed 12:19:50 AM 39.9133 -92.3553 231° Southwest 433 498 38,000  Level Kansas City Center
Wed 12:20:52 AM 39.8389 -92.4772 232° Southwest 432 497 38,000  Level Kansas City Center
Wed 12:21:51 AM 39.7633 -92.6017 232° Southwest 437 503 38,000  Level Kansas City Center
Wed 12:22:55 AM 39.6881 -92.7258 232° Southwest 438 504 38,000  Level Kansas City Center
Wed 12:23:53 AM 39.6103 -92.8472 230° Southwest 440 506 38,000  Level Kansas City Center
Wed 12:24:56 AM 39.5344 -92.9686 231° Southwest 438 504 38,000  Level Kansas City Center
Wed 12:25:56 AM 39.4594 -93.0881 231° Southwest 435 501 38,000  Level Kansas City Center
Wed 12:26:55 AM 39.3686 -93.2339 231° Southwest 435 501 38,000  Level Kansas City Center
Wed 12:27:56 AM 39.2922 -93.3539 231° Southwest 436 502 38,000  Level Kansas City Center
Wed 12:28:59 AM 39.2158 -93.4792 232° Southwest 436 502 38,000  Level Kansas City Center
Wed 12:30:00 AM 39.1419 -93.5956 231° Southwest 437 503 38,000  Level Kansas City Center
Wed 12:31:00 AM 39.0678 -93.7125 231° Southwest 440 506 38,000  Level Kansas City Center
Wed 12:32:02 AM 38.9806 -93.8486 231° Southwest 440 506 38,000  Level Kansas City Center
Wed 12:33:02 AM 38.9050 -93.9644 230° Southwest 441 507 38,000  Level Kansas City Center
Wed 12:34:03 AM 38.8308 -94.0800 231° Southwest 439 505 38,000  Level Kansas City Center
Wed 12:35:04 AM 38.7433 -94.2142 230° Southwest 438 504 38,000  Level Kansas City Center
Wed 12:36:05 AM 38.6689 -94.3303 231° Southwest 439 505 38,000  Level Kansas City Center
Wed 12:37:06 AM 38.5939 -94.4447 230° Southwest 438 504 38,000  Level Kansas City Center
Wed 12:38:05 AM 38.5064 -94.5786 230° Southwest 437 503 38,000  Level Kansas City Center
Wed 12:39:07 AM 38.4303 -94.6936 230° Southwest 440 506 38,000  Level Kansas City Center
Wed 12:40:08 AM 38.3392 -94.7878 219° Southwest 437 503 38,000  Level Kansas City Center
Wed 12:41:08 AM 38.2317 -94.8958 218° Southwest 439 505 38,000  Level Kansas City Center
Wed 12:42:08 AM 38.1383 -94.9881 218° Southwest 440 506 38,000  Level Kansas City Center
Wed 12:43:09 AM 38.0467 -95.0792 218° Southwest 439 505 38,000  Level Kansas City Center
Wed 12:44:11 AM 37.9528 -95.1753 219° Southwest 447 514 38,000  Level Kansas City Center
Wed 12:45:09 AM 37.8433 -95.2825 218° Southwest 440 506 38,000  Level Kansas City Center
Wed 12:46:12 AM 37.7458 -95.3789 218° Southwest 442 509 38,000  Level Kansas City Center
Wed 12:47:11 AM 37.6492 -95.4742 218° Southwest 442 509 38,000  Level Kansas City Center
Wed 12:48:12 AM 37.5511 -95.5689 217° Southwest 444 511 38,000  Level Kansas City Center
Wed 12:49:13 AM 37.4536 -95.6650 218° Southwest 444 511 38,000  Level Kansas City Center
Wed 12:50:13 AM 37.3550 -95.7606 218° Southwest 447 514 38,000  Level Kansas City Center
Wed 12:51:13 AM 37.2567 -95.8558 218° Southwest 447 514 38,000 -744 Level Kansas City Center
Wed 12:52:14 AM 37.1586 -95.9506 218° Southwest 446 513 36,500 -1,317 Descending Kansas City Center
Wed 12:53:16 AM 37.0614 -96.0428 217° Southwest 442 509 35,300 -1,636 Descending Kansas City Center
Wed 12:54:15 AM 36.9656 -96.1350 218° Southwest 439 505 33,200 -1,967 Descending Kansas City Center
Wed 12:55:18 AM 36.8658 -96.2292 217° Southwest 444 511 31,300 -1,902 Descending Kansas City Center
Wed 12:56:18 AM 36.7639 -96.3272 218° Southwest 456 525 29,300 -1,900 Descending Kansas City Center
Wed 12:57:18 AM 36.6606 -96.4261 218° Southwest 466 536 27,500 -1,916 Descending Kansas City Center
Wed 12:58:17 AM 36.5608 -96.5189 217° Southwest 457 526 25,500 -1,967 Descending Kansas City Center
Wed 12:59:20 AM 36.4631 -96.6114 217° Southwest 447 514 23,500 -2,112 Descending Kansas City Center
Wed 01:00:22 AM 36.3453 -96.7217 217° Southwest 444 511 21,100 -2,182 Descending Kansas City Center
Wed 01:01:21 AM 36.2478 -96.8139 217° Southwest 437 503 19,100 -2,017 Descending Kansas City Center
Wed 01:02:21 AM 36.1553 -96.9006 217° Southwest 424 488 17,100 -1,983 Descending Kansas City Center
Wed 01:03:22 AM 36.0636 -96.9853 217° Southwest 415 478 15,100 -1,951 Descending Kansas City Center
Wed 01:04:24 AM 35.9761 -97.0667 217° Southwest 402 463 13,100 -1,951 Descending Kansas City Center
Wed 01:05:25 AM 35.8908 -97.1467 217° Southwest 392 451 11,100 -1,537 Descending Kansas City Center
Wed 01:06:25 AM 35.8208 -97.2250 222° Southwest 358 412 10,000 -1,160 Descending Kansas City Center
Wed 01:07:24 AM 35.7631 -97.2875 221° Southwest 303 349 8,800 -1,438 Descending Kansas City Center
Wed 01:08:26 AM 35.7078 -97.3469 221° Southwest 273 314 7,100 -1,366 Descending Kansas City Center
Wed 01:09:27 AM 35.6569 -97.4028 222° Southwest 260 299 6,000 -1,100 Descending Kansas City Center
Wed 01:10:26 AM 35.6094 -97.4519 220° Southwest 242 278 4,900 -1,050 Descending Kansas City Center
Wed 01:11:27 AM 35.5633 -97.5028 222° Southwest 228 262 3,900 -984 Descending Kansas City Center

Login

Don't have an account? Register now (free) for customized features, flight alerts, and more!